createdAt,value
2019-03-31T00:02:58.322Z,140.97
2019-03-31T00:08:03.631Z,134.20
2019-03-31T00:13:08.642Z,150.77
2019-03-31T00:18:13.905Z,146.10
2019-03-31T00:23:19.081Z,187.40
2019-03-31T00:28:43.421Z,178.13
2019-03-31T00:33:48.497Z,156.90
2019-03-31T00:38:53.649Z,172.53
2019-03-31T00:43:58.914Z,141.90
2019-03-31T00:49:04.194Z,167.63
2019-03-31T00:54:09.627Z,130.47
2019-03-31T00:59:14.719Z,178.07
2019-03-31T01:04:22.206Z,132.53
2019-03-31T01:09:29.900Z,96.63
2019-03-31T01:14:34.993Z,114.07
2019-03-31T01:19:40.550Z,101.83
2019-03-31T01:24:45.978Z,143.00
2019-03-31T01:29:50.892Z,130.93
2019-03-31T01:34:56.065Z,132.53
2019-03-31T01:40:01.826Z,160.53
2019-03-31T01:45:08.570Z,125.10
2019-03-31T01:50:16.006Z,199.60
2019-03-31T01:55:21.381Z,127.07
2019-03-31T02:00:28.315Z,158.13
2019-03-31T02:05:33.823Z,118.40
2019-03-31T02:10:39.054Z,161.30
2019-03-31T02:15:44.590Z,129.70
2019-03-31T02:20:49.812Z,158.27
2019-03-31T02:25:54.903Z,118.97
2019-03-31T02:30:59.933Z,143.13
2019-03-31T02:36:05.287Z,133.20
2019-03-31T02:41:29.886Z,177.13
2019-03-31T02:46:35.002Z,166.17
2019-03-31T02:51:40.795Z,121.00
2019-03-31T02:56:46.772Z,143.53
2019-03-31T03:02:12.489Z,141.30
2019-03-31T03:07:18.843Z,190.23
2019-03-31T03:12:25.964Z,155.00
2019-03-31T03:17:31.337Z,192.73
2019-03-31T03:22:36.380Z,139.27
2019-03-31T03:27:41.604Z,177.77
2019-03-31T03:33:12.105Z,183.90
2019-03-31T03:37:53.325Z,119.30
2019-03-31T03:42:58.784Z,143.90
2019-03-31T03:48:04.083Z,114.93
2019-03-31T03:53:28.339Z,133.33
2019-03-31T03:58:33.500Z,130.40
2019-03-31T04:03:38.637Z,105.07
2019-03-31T04:08:43.930Z,137.77
2019-03-31T04:13:50.196Z,109.30
2019-03-31T04:18:55.141Z,112.10
2019-03-31T04:24:00.490Z,141.07
2019-03-31T04:29:24.693Z,102.67
2019-03-31T04:34:49.085Z,145.97
2019-03-31T04:40:04.980Z,105.93
2019-03-31T04:45:10.122Z,135.27
2019-03-31T04:50:15.235Z,107.03
2019-03-31T04:55:20.821Z,132.47
2019-03-31T05:00:25.777Z,140.60
2019-03-31T05:05:30.926Z,149.03
2019-03-31T05:10:36.122Z,171.63
2019-03-31T05:15:41.234Z,150.17
2019-03-31T05:20:46.622Z,191.17
2019-03-31T05:25:51.671Z,136.70
2019-03-31T05:30:56.945Z,165.67
2019-03-31T05:36:02.098Z,137.30
2019-03-31T05:41:07.198Z,153.47
2019-03-31T05:46:12.384Z,111.00
2019-03-31T05:51:17.502Z,128.23
2019-03-31T05:56:22.695Z,98.57
2019-03-31T06:01:27.866Z,108.80
2019-03-31T06:06:32.975Z,78.70
2019-03-31T06:11:38.172Z,93.67
2019-03-31T06:16:43.325Z,72.27
2019-03-31T06:21:48.539Z,68.37
2019-03-31T06:26:53.717Z,85.23
2019-03-31T06:31:58.864Z,64.27
2019-03-31T06:37:03.822Z,63.77
2019-03-31T06:42:08.971Z,68.43
2019-03-31T06:47:13.869Z,53.47
2019-03-31T06:52:20.567Z,60.23
2019-03-31T06:57:25.669Z,49.50
2019-03-31T07:02:30.700Z,52.63
2019-03-31T07:07:35.626Z,57.27
2019-03-31T07:12:40.635Z,46.83
2019-03-31T07:17:46.311Z,48.67
2019-03-31T07:22:51.410Z,45.23
2019-03-31T07:27:56.600Z,46.27
2019-03-31T07:33:01.528Z,47.53
2019-03-31T07:38:06.631Z,38.63
2019-03-31T07:43:20.326Z,35.20
2019-03-31T07:48:25.583Z,29.97
2019-03-31T07:53:31.895Z,29.70
2019-03-31T07:58:37.043Z,28.87
2019-03-31T08:04:06.372Z,27.60
2019-03-31T08:09:20.378Z,29.90
2019-03-31T08:14:31.459Z,31.10
2019-03-31T08:19:37.298Z,26.67
2019-03-31T08:24:57.426Z,22.43
2019-03-31T08:30:03.349Z,25.27
2019-03-31T08:41:28.159Z,19.53
2019-03-31T08:51:39.699Z,18.63
2019-03-31T08:56:44.944Z,19.53
2019-03-31T09:01:50.349Z,24.73
2019-03-31T09:07:14.731Z,14.77
2019-03-31T09:12:19.704Z,20.07
2019-03-31T09:17:26.864Z,20.10
2019-03-31T09:22:33.849Z,17.30
2019-03-31T09:27:39.405Z,23.97
2019-03-31T09:32:44.715Z,15.83
2019-03-31T09:37:49.962Z,20.63
2019-03-31T09:42:55.250Z,15.83
2019-03-31T09:48:00.451Z,23.30
2019-03-31T09:53:05.760Z,15.63
2019-03-31T09:58:11.496Z,27.67
2019-03-31T10:03:17.500Z,19.37
2019-03-31T10:08:22.863Z,13.17
2019-03-31T10:13:28.227Z,12.60
2019-03-31T10:18:33.488Z,14.60
2019-03-31T10:23:39.024Z,14.67
2019-03-31T10:28:44.839Z,14.80
2019-03-31T10:33:49.925Z,20.17
2019-03-31T10:38:55.196Z,16.83
2019-03-31T10:44:00.556Z,25.77
2019-03-31T11:10:29.156Z,11.65
2019-03-31T11:15:34.864Z,9.47
2019-03-31T11:20:40.708Z,11.43
2019-03-31T11:25:46.130Z,8.83
2019-03-31T11:30:51.606Z,9.60
2019-03-31T11:35:58.802Z,8.90
2019-03-31T11:41:04.303Z,7.80
2019-03-31T11:46:09.847Z,11.93
2019-03-31T11:51:15.249Z,9.77
2019-03-31T11:56:20.351Z,8.43
2019-03-31T12:01:25.946Z,6.87
2019-03-31T12:06:31.115Z,8.77
2019-03-31T12:11:36.373Z,7.17
2019-03-31T12:16:41.907Z,6.90
2019-03-31T12:21:47.476Z,7.87
2019-03-31T12:26:52.492Z,5.03
2019-03-31T12:31:57.786Z,5.03
2019-03-31T12:37:03.150Z,4.97
2019-03-31T12:42:08.350Z,4.67
2019-03-31T12:47:13.769Z,4.80
2019-03-31T12:52:19.444Z,8.67
2019-03-31T12:57:24.917Z,4.10
2019-03-31T13:02:30.121Z,4.27
2019-03-31T13:07:35.304Z,5.33
2019-03-31T13:12:40.721Z,6.03
2019-03-31T13:17:45.972Z,5.03
2019-03-31T13:22:51.636Z,4.23
2019-03-31T13:27:58.024Z,5.40
2019-03-31T13:33:03.488Z,8.13
2019-03-31T13:38:11.194Z,4.77
2019-03-31T13:43:15.902Z,3.73
2019-03-31T13:48:21.963Z,7.93
2019-03-31T13:53:27.062Z,6.07
2019-03-31T13:58:33.772Z,13.10
2019-03-31T14:03:39.409Z,7.37
2019-03-31T14:08:44.855Z,5.77
2019-03-31T14:13:50.596Z,5.30
2019-03-31T14:18:56.220Z,2.47
2019-03-31T14:24:01.588Z,2.87
2019-03-31T14:29:07.046Z,5.53
2019-03-31T14:34:12.632Z,4.93
2019-03-31T14:39:17.952Z,3.90
2019-03-31T14:44:23.249Z,4.57
2019-03-31T14:49:28.637Z,3.13
2019-03-31T14:54:34.363Z,3.33
2019-03-31T14:59:39.945Z,5.87
2019-03-31T15:04:45.551Z,6.03
2019-03-31T15:09:51.229Z,5.10
2019-03-31T15:14:56.620Z,9.17
2019-03-31T15:20:02.399Z,4.93
2019-03-31T15:25:08.222Z,6.40
2019-03-31T15:30:14.279Z,2.03
2019-03-31T15:35:19.499Z,2.53
2019-03-31T15:40:25.010Z,1.97
2019-03-31T15:45:30.400Z,3.20
2019-03-31T15:50:35.772Z,3.53
2019-03-31T15:55:41.121Z,3.30
2019-03-31T16:00:46.682Z,4.20
2019-03-31T16:05:51.950Z,6.90
2019-03-31T16:10:57.331Z,7.70
2019-03-31T16:16:02.654Z,5.67
2019-03-31T16:21:08.208Z,4.90
2019-03-31T16:26:13.168Z,3.97
2019-03-31T16:31:18.145Z,10.37
2019-03-31T16:36:23.491Z,6.73
2019-03-31T16:41:28.460Z,6.57
2019-03-31T16:46:33.765Z,6.70
2019-03-31T16:51:38.995Z,7.27
2019-03-31T16:56:44.291Z,4.27
2019-03-31T17:01:49.648Z,11.03
2019-03-31T17:06:54.634Z,6.57
2019-03-31T17:11:59.696Z,8.23
2019-03-31T17:17:05.287Z,8.67
2019-03-31T17:22:11.235Z,5.07
2019-03-31T17:27:17.047Z,19.07
2019-03-31T17:32:22.592Z,11.60
2019-03-31T17:37:28.024Z,9.43
2019-03-31T17:42:33.558Z,8.10
2019-03-31T17:47:38.747Z,6.47
2019-03-31T17:52:44.178Z,7.77
2019-03-31T17:57:50.224Z,8.27
2019-03-31T18:02:55.255Z,7.43
2019-03-31T18:08:00.817Z,8.10
2019-03-31T18:13:06.263Z,7.60
2019-03-31T18:18:11.839Z,5.93
2019-03-31T18:23:17.100Z,10.17
2019-03-31T18:28:22.402Z,6.77
2019-03-31T18:33:27.478Z,9.20
2019-03-31T18:38:33.330Z,10.67
2019-03-31T18:43:51.154Z,10.70
2019-03-31T18:48:53.886Z,8.40
2019-03-31T18:54:12.408Z,14.37
2019-03-31T18:59:57.479Z,9.77
2019-03-31T19:06:05.728Z,7.20
2019-03-31T19:11:40.371Z,7.87
2019-03-31T19:28:38.371Z,13.30
2019-03-31T19:34:14.151Z,7.60
2019-03-31T19:39:32.491Z,11.97
2019-03-31T19:45:02.359Z,14.63
2019-03-31T19:56:41.325Z,7.60
2019-03-31T20:02:08.700Z,7.93
2019-03-31T20:18:48.974Z,13.23
2019-03-31T20:24:00.773Z,9.23
2019-03-31T20:29:50.249Z,15.97
2019-03-31T20:35:34.041Z,15.23
2019-03-31T20:46:04.655Z,17.60
2019-03-31T20:51:10.212Z,11.83
2019-03-31T20:56:15.476Z,14.20
2019-03-31T21:01:20.522Z,20.20
2019-03-31T21:06:25.785Z,11.73
2019-03-31T21:11:31.287Z,14.40
2019-03-31T21:16:36.617Z,14.77
2019-03-31T21:21:41.589Z,18.20
2019-03-31T21:26:46.699Z,19.60
2019-03-31T21:31:52.228Z,17.63
2019-03-31T21:36:57.721Z,18.63
2019-03-31T21:42:02.904Z,14.50
2019-03-31T21:47:08.302Z,13.30
2019-03-31T21:52:13.589Z,12.37
2019-03-31T21:57:18.575Z,12.83
2019-03-31T22:02:23.665Z,12.97
2019-03-31T22:07:29.023Z,15.83
2019-03-31T22:12:34.115Z,20.50
2019-03-31T22:17:39.425Z,12.83
2019-03-31T22:22:44.614Z,15.87
2019-03-31T22:27:49.961Z,16.13
2019-03-31T22:32:55.030Z,17.90
2019-03-31T22:38:02.406Z,23.70
2019-03-31T22:43:08.029Z,16.90
2019-03-31T22:48:13.371Z,19.03
2019-03-31T22:53:18.577Z,16.80
2019-03-31T22:58:23.700Z,15.33
2019-03-31T23:03:29.072Z,17.07
2019-03-31T23:08:34.214Z,21.10
2019-03-31T23:13:39.381Z,22.37
2019-03-31T23:18:44.694Z,23.80
2019-03-31T23:23:50.384Z,33.53
2019-03-31T23:28:55.455Z,26.93
2019-03-31T23:34:00.608Z,25.13
2019-03-31T23:39:07.672Z,48.57
2019-03-31T23:44:12.786Z,59.07
2019-03-31T23:49:18.131Z,41.30
2019-03-31T23:54:42.455Z,24.40
2019-03-31T23:59:47.659Z,54.73
